createdAt,value
2017-09-30T00:00:00.125Z,960.68
2017-09-30T00:01:00.100Z,960.64
2017-09-30T00:02:00.120Z,960.63
2017-09-30T00:03:00.146Z,960.64
2017-09-30T00:04:00.167Z,960.62
2017-09-30T00:05:00.193Z,960.61
2017-09-30T00:06:00.215Z,960.67
2017-09-30T00:07:00.241Z,960.61
2017-09-30T00:08:00.262Z,960.6
2017-09-30T00:09:00.285Z,960.62
2017-09-30T00:10:00.311Z,960.58
2017-09-30T00:11:00.336Z,960.6
2017-09-30T00:12:00.369Z,960.6
2017-09-30T00:13:00.380Z,960.61
2017-09-30T00:14:00.407Z,960.64
2017-09-30T00:15:00.480Z,960.61
2017-09-30T00:16:00.455Z,960.58
2017-09-30T00:17:00.477Z,960.6
2017-09-30T00:18:00.500Z,960.6
2017-09-30T00:19:00.530Z,960.6
2017-09-30T00:20:00.548Z,960.58
2017-09-30T00:21:00.575Z,960.54
2017-09-30T00:22:00.598Z,960.56
2017-09-30T00:23:00.619Z,960.56
2017-09-30T00:24:00.642Z,960.56
2017-09-30T00:25:00.674Z,960.58
2017-09-30T00:26:00.692Z,960.56
2017-09-30T00:27:00.714Z,960.59
2017-09-30T00:28:00.744Z,960.53
2017-09-30T00:29:00.780Z,960.52
2017-09-30T00:30:00.835Z,960.48
2017-09-30T00:31:00.810Z,960.5
2017-09-30T00:32:00.840Z,960.46
2017-09-30T00:33:00.856Z,960.43
2017-09-30T00:34:00.881Z,960.42
2017-09-30T00:35:00.909Z,960.43
2017-09-30T00:36:00.929Z,960.39
2017-09-30T00:37:00.980Z,960.38
2017-09-30T00:38:00.975Z,960.39
2017-09-30T00:39:01.001Z,960.36
2017-09-30T00:40:01.024Z,960.34
2017-09-30T00:41:01.050Z,960.33
2017-09-30T00:42:01.073Z,960.32
2017-09-30T00:43:01.100Z,960.31
2017-09-30T00:44:01.119Z,960.28
2017-09-30T00:45:01.142Z,960.3
2017-09-30T00:46:01.194Z,960.29
2017-09-30T00:47:01.188Z,960.28
2017-09-30T00:48:01.216Z,960.28
2017-09-30T00:49:01.288Z,960.26
2017-09-30T00:50:01.260Z,960.28
2017-09-30T00:51:01.285Z,960.28
2017-09-30T00:52:01.314Z,960.27
2017-09-30T00:53:01.330Z,960.24
2017-09-30T00:54:01.360Z,960.25
2017-09-30T00:55:01.381Z,960.28
2017-09-30T00:56:01.403Z,960.29
2017-09-30T00:57:01.431Z,960.31
2017-09-30T00:58:01.450Z,960.32
2017-09-30T00:59:01.487Z,960.26
2017-09-30T01:00:01.500Z,960.26
2017-09-30T01:01:01.522Z,960.25
2017-09-30T01:02:01.545Z,960.26
2017-09-30T01:03:01.572Z,960.25
2017-09-30T01:04:01.642Z,960.27
2017-09-30T01:05:01.614Z,960.26
2017-09-30T01:06:01.642Z,960.19
2017-09-30T01:07:01.662Z,960.22
2017-09-30T01:08:01.691Z,960.22
2017-09-30T01:09:01.712Z,960.2
2017-09-30T01:10:01.734Z,960.22
2017-09-30T01:11:01.766Z,960.2
2017-09-30T01:12:01.781Z,960.24
2017-09-30T01:13:01.811Z,960.2
2017-09-30T01:14:01.827Z,960.2
2017-09-30T01:15:01.851Z,960.18
2017-09-30T01:16:01.876Z,960.18
2017-09-30T01:17:01.898Z,960.16
2017-09-30T01:18:01.922Z,960.14
2017-09-30T01:19:01.947Z,960.14
2017-09-30T01:20:01.973Z,960.12
2017-09-30T01:21:01.991Z,960.09
2017-09-30T01:22:02.018Z,960.1
2017-09-30T01:23:02.040Z,960.09
2017-09-30T01:24:02.071Z,960.09
2017-09-30T01:25:02.086Z,960.1
2017-09-30T01:26:02.110Z,960.08
2017-09-30T01:27:02.145Z,960.03
2017-09-30T01:28:02.158Z,960.01
2017-09-30T01:29:02.183Z,960
2017-09-30T01:30:02.202Z,959.99
2017-09-30T01:31:02.234Z,960.01
2017-09-30T01:32:02.516Z,959.98
2017-09-30T01:33:02.273Z,960
2017-09-30T01:34:02.298Z,959.96
2017-09-30T01:35:02.322Z,959.97
2017-09-30T01:36:02.344Z,959.95
2017-09-30T01:37:02.418Z,959.95
2017-09-30T01:38:02.391Z,959.95
2017-09-30T01:39:02.436Z,959.94
2017-09-30T01:40:02.439Z,959.96
2017-09-30T01:41:02.461Z,959.95
2017-09-30T01:42:02.486Z,959.99
2017-09-30T01:43:02.512Z,959.97
2017-09-30T01:44:02.538Z,959.96
2017-09-30T01:45:02.556Z,959.96
2017-09-30T01:46:02.580Z,959.96
2017-09-30T01:47:02.606Z,959.93
2017-09-30T01:48:02.630Z,959.93
2017-09-30T01:49:02.658Z,959.92
2017-09-30T01:50:02.676Z,959.94
2017-09-30T01:51:02.699Z,959.9
2017-09-30T01:52:02.768Z,959.92
2017-09-30T01:53:02.742Z,959.94
2017-09-30T01:54:02.768Z,959.93
2017-09-30T01:55:02.789Z,959.95
2017-09-30T01:56:02.817Z,959.87
2017-09-30T01:57:02.837Z,959.87
2017-09-30T01:58:02.860Z,959.89
2017-09-30T01:59:02.887Z,959.89
2017-09-30T02:00:02.906Z,959.88
2017-09-30T02:01:02.932Z,959.87
2017-09-30T02:02:02.958Z,959.86
2017-09-30T02:03:02.975Z,959.84
2017-09-30T02:04:03.000Z,959.87
2017-09-30T02:05:03.022Z,959.81
2017-09-30T02:06:03.045Z,959.84
2017-09-30T02:07:03.119Z,959.88
2017-09-30T02:08:03.097Z,959.87
2017-09-30T02:09:03.114Z,959.89
2017-09-30T02:10:03.157Z,959.87
2017-09-30T02:11:03.167Z,959.83
2017-09-30T02:12:03.189Z,959.83
2017-09-30T02:13:03.208Z,959.77
2017-09-30T02:14:03.232Z,959.75
2017-09-30T02:15:03.255Z,959.75
2017-09-30T02:16:03.277Z,959.73
2017-09-30T02:17:03.305Z,959.69
2017-09-30T02:18:03.324Z,959.69
2017-09-30T02:19:03.346Z,959.67
2017-09-30T02:20:03.370Z,959.68
2017-09-30T02:21:03.395Z,959.65
2017-09-30T02:22:03.417Z,959.67
2017-09-30T02:23:03.440Z,959.67
2017-09-30T02:24:03.515Z,959.69
2017-09-30T02:25:03.490Z,959.67
2017-09-30T02:26:03.510Z,959.67
2017-09-30T02:27:03.533Z,959.7
2017-09-30T02:28:03.556Z,959.72
2017-09-30T02:29:03.583Z,959.68
2017-09-30T02:30:03.605Z,959.73
2017-09-30T02:31:03.627Z,959.73
2017-09-30T02:32:03.651Z,959.71
2017-09-30T02:33:03.673Z,959.74
2017-09-30T02:34:03.693Z,959.7
2017-09-30T02:35:03.729Z,959.68
2017-09-30T02:36:03.742Z,959.68
2017-09-30T02:37:03.763Z,959.68
2017-09-30T02:38:03.788Z,959.69
2017-09-30T02:39:03.895Z,959.68
2017-09-30T02:40:03.833Z,959.71
2017-09-30T02:41:03.877Z,959.65
2017-09-30T02:42:03.878Z,959.66
2017-09-30T02:43:03.906Z,959.69
2017-09-30T02:44:03.923Z,959.63
2017-09-30T02:45:03.948Z,959.67
2017-09-30T02:46:03.972Z,959.68
2017-09-30T02:47:03.994Z,959.68
2017-09-30T02:48:04.018Z,959.67
2017-09-30T02:49:04.170Z,959.69
2017-09-30T02:50:04.086Z,959.7
2017-09-30T02:51:04.085Z,959.67
2017-09-30T02:52:04.108Z,959.65
2017-09-30T02:53:04.136Z,959.63
2017-09-30T02:54:04.223Z,959.62
2017-09-30T02:55:04.176Z,959.57
2017-09-30T02:56:04.199Z,959.62
2017-09-30T02:57:04.233Z,959.58
2017-09-30T02:58:04.244Z,959.6
2017-09-30T02:59:04.397Z,959.57
2017-09-30T03:00:04.291Z,959.57
2017-09-30T03:01:04.313Z,959.57
2017-09-30T03:02:04.336Z,959.54
2017-09-30T03:03:04.359Z,959.56
2017-09-30T03:04:04.450Z,959.55
2017-09-30T03:05:04.447Z,959.54
2017-09-30T03:06:04.428Z,959.55
2017-09-30T03:07:04.453Z,959.57
2017-09-30T03:08:04.473Z,959.52
2017-09-30T03:09:04.500Z,959.52
2017-09-30T03:10:04.589Z,959.58
2017-09-30T03:11:04.595Z,959.56
2017-09-30T03:12:04.566Z,959.57
2017-09-30T03:13:04.589Z,959.53
2017-09-30T03:14:04.685Z,959.56
2017-09-30T03:15:04.646Z,959.52
2017-09-30T03:16:04.661Z,959.46
2017-09-30T03:17:04.683Z,959.47
2017-09-30T03:18:04.703Z,959.48
2017-09-30T03:19:04.728Z,959.48
2017-09-30T03:20:04.804Z,959.47
2017-09-30T03:21:04.773Z,959.47
2017-09-30T03:22:04.795Z,959.45
2017-09-30T03:23:04.818Z,959.43
2017-09-30T03:24:04.843Z,959.41
2017-09-30T03:25:04.983Z,959.42
2017-09-30T03:26:04.937Z,959.4
2017-09-30T03:27:04.918Z,959.38
2017-09-30T03:28:04.936Z,959.34
2017-09-30T03:29:04.963Z,959.35
2017-09-30T03:30:05.003Z,959.32
2017-09-30T03:31:05.102Z,959.29
2017-09-30T03:32:05.033Z,959.3
2017-09-30T03:33:05.051Z,959.3
2017-09-30T03:34:05.071Z,959.31
2017-09-30T03:35:05.125Z,959.29
2017-09-30T03:36:05.118Z,959.32
2017-09-30T03:37:05.145Z,959.32
2017-09-30T03:38:05.180Z,959.33
2017-09-30T03:39:05.195Z,959.3
2017-09-30T03:40:05.279Z,959.31
2017-09-30T03:41:05.443Z,959.31
2017-09-30T03:42:05.256Z,959.29
2017-09-30T03:43:05.298Z,959.33
2017-09-30T03:44:05.312Z,959.3
2017-09-30T03:45:05.325Z,959.32
2017-09-30T03:46:05.531Z,959.29
2017-09-30T03:47:05.395Z,959.27
2017-09-30T03:48:05.415Z,959.3
2017-09-30T03:49:05.435Z,959.28
2017-09-30T03:50:05.442Z,959.29
2017-09-30T03:51:05.464Z,959.26
2017-09-30T03:52:05.485Z,959.27
2017-09-30T03:53:05.516Z,959.27
2017-09-30T03:54:05.535Z,959.25
2017-09-30T03:55:05.613Z,959.25
2017-09-30T03:56:05.653Z,959.24
2017-09-30T03:57:05.654Z,959.21
2017-09-30T03:58:05.628Z,959.22
2017-09-30T03:59:05.649Z,959.28
2017-09-30T04:00:05.677Z,959.19
2017-09-30T04:01:05.694Z,959.21
2017-09-30T04:02:05.723Z,959.22
2017-09-30T04:03:05.739Z,959.25
2017-09-30T04:04:05.764Z,959.24
2017-09-30T04:05:05.788Z,959.23
2017-09-30T04:06:05.818Z,959.23
2017-09-30T04:07:05.832Z,959.26
2017-09-30T04:08:05.857Z,959.25
2017-09-30T04:09:05.880Z,959.25
2017-09-30T04:10:05.902Z,959.24
2017-09-30T04:11:05.925Z,959.21
2017-09-30T04:12:05.950Z,959.18
2017-09-30T04:13:05.972Z,959.21
2017-09-30T04:14:05.995Z,959.16
2017-09-30T04:15:06.192Z,959.14
2017-09-30T04:16:06.042Z,959.12
2017-09-30T04:17:06.065Z,959.13
2017-09-30T04:18:06.091Z,959.09
2017-09-30T04:19:06.111Z,959.12
2017-09-30T04:20:06.136Z,959.12
2017-09-30T04:21:06.159Z,959.1
2017-09-30T04:22:06.181Z,959.12
2017-09-30T04:23:06.207Z,959.11
2017-09-30T04:24:06.232Z,959.1
2017-09-30T04:25:06.250Z,959.07
2017-09-30T04:26:06.277Z,959.07
2017-09-30T04:27:06.298Z,959.07
2017-09-30T04:28:06.321Z,959.06
2017-09-30T04:29:06.344Z,959.04
2017-09-30T04:30:06.517Z,959.08
2017-09-30T04:31:06.390Z,959.05
2017-09-30T04:32:06.417Z,959.1
2017-09-30T04:33:06.437Z,959.06
2017-09-30T04:34:06.460Z,959.09
2017-09-30T04:35:06.484Z,959.09
2017-09-30T04:36:06.511Z,959.09
2017-09-30T04:37:06.541Z,959.07
2017-09-30T04:38:06.552Z,959.03
2017-09-30T04:39:06.579Z,959.05
2017-09-30T04:40:06.626Z,959.07
2017-09-30T04:41:06.706Z,959.1
2017-09-30T04:42:06.645Z,959.08
2017-09-30T04:43:06.669Z,959.14
2017-09-30T04:44:06.701Z,959.14
2017-09-30T04:45:06.717Z,959.14
2017-09-30T04:46:06.737Z,959.2
2017-09-30T04:47:06.765Z,959.17
2017-09-30T04:48:06.833Z,959.14
2017-09-30T04:49:06.807Z,959.2
2017-09-30T04:50:06.858Z,959.2
2017-09-30T04:51:06.853Z,959.21
2017-09-30T04:52:06.874Z,959.22
2017-09-30T04:53:06.900Z,959.25
2017-09-30T04:54:06.922Z,959.22
2017-09-30T04:55:06.946Z,959.28
2017-09-30T04:56:06.967Z,959.24
2017-09-30T04:57:06.991Z,959.25
2017-09-30T04:58:07.014Z,959.26
2017-09-30T04:59:07.036Z,959.28
2017-09-30T05:00:07.061Z,959.27
2017-09-30T05:01:07.084Z,959.28
2017-09-30T05:02:07.106Z,959.33
2017-09-30T05:03:07.129Z,959.3
2017-09-30T05:04:07.205Z,959.31
2017-09-30T05:05:07.178Z,959.33
2017-09-30T05:06:07.197Z,959.32
2017-09-30T05:07:07.221Z,959.29
2017-09-30T05:08:07.262Z,959.29
2017-09-30T05:09:07.266Z,959.29
2017-09-30T05:10:07.290Z,959.25
2017-09-30T05:11:07.313Z,959.29
2017-09-30T05:12:07.337Z,959.27
2017-09-30T05:13:07.360Z,959.28
2017-09-30T05:14:07.387Z,959.23
2017-09-30T05:15:07.405Z,959.23
2017-09-30T05:16:07.431Z,959.24
2017-09-30T05:17:07.452Z,959.21
2017-09-30T05:18:07.474Z,959.22
2017-09-30T05:19:07.497Z,959.22
2017-09-30T05:20:07.520Z,959.22
2017-09-30T05:21:07.594Z,959.24
2017-09-30T05:22:07.572Z,959.23
2017-09-30T05:23:07.589Z,959.23
2017-09-30T05:24:07.613Z,959.26
2017-09-30T05:25:07.635Z,959.26
2017-09-30T05:26:07.658Z,959.27
2017-09-30T05:27:07.682Z,959.29
2017-09-30T05:28:07.704Z,959.28
2017-09-30T05:29:07.728Z,959.27
2017-09-30T05:30:07.780Z,959.27
2017-09-30T05:31:07.780Z,959.27
2017-09-30T05:32:07.801Z,959.27
2017-09-30T05:33:07.820Z,959.28
2017-09-30T05:34:07.848Z,959.28
2017-09-30T05:35:07.866Z,959.28
2017-09-30T05:36:07.939Z,959.29
2017-09-30T05:37:07.912Z,959.24
2017-09-30T05:38:07.935Z,959.24
2017-09-30T05:39:07.970Z,959.25
2017-09-30T05:40:07.981Z,959.25
2017-09-30T05:41:08.014Z,959.26
2017-09-30T05:42:08.028Z,959.26
2017-09-30T05:43:08.050Z,959.32
2017-09-30T05:44:08.077Z,959.32
2017-09-30T05:45:08.104Z,959.27
2017-09-30T05:46:08.121Z,959.25
2017-09-30T05:47:08.145Z,959.28
2017-09-30T05:48:08.171Z,959.28
2017-09-30T05:49:08.189Z,959.25
2017-09-30T05:50:08.212Z,959.23
2017-09-30T05:51:08.286Z,959.25
2017-09-30T05:52:08.259Z,959.22
2017-09-30T05:53:08.282Z,959.23
2017-09-30T05:54:08.306Z,959.2
2017-09-30T05:55:08.332Z,959.16
2017-09-30T05:56:08.358Z,959.17
2017-09-30T05:57:08.375Z,959.14
2017-09-30T05:58:08.399Z,959.14
2017-09-30T05:59:08.422Z,959.18
2017-09-30T06:00:08.446Z,959.13
2017-09-30T06:01:08.468Z,959.1
2017-09-30T06:02:08.498Z,959.13
2017-09-30T06:03:08.519Z,959.12
2017-09-30T06:04:08.538Z,959.14
2017-09-30T06:05:08.580Z,959.16
2017-09-30T06:06:08.635Z,959.17
2017-09-30T06:07:08.609Z,959.16
2017-09-30T06:08:08.631Z,959.13
2017-09-30T06:09:08.655Z,959.16
2017-09-30T06:10:08.704Z,959.15
2017-09-30T06:11:08.700Z,959.13
2017-09-30T06:12:08.724Z,959.08
2017-09-30T06:13:08.749Z,959.05
2017-09-30T06:14:08.773Z,959.07
2017-09-30T06:15:08.797Z,959.06
2017-09-30T06:16:08.819Z,959.06
2017-09-30T06:17:08.842Z,959.06
2017-09-30T06:18:08.866Z,959.04
2017-09-30T06:19:08.893Z,959.01
2017-09-30T06:20:08.939Z,959.02
2017-09-30T06:21:08.941Z,959.02
2017-09-30T06:22:08.963Z,959.03
2017-09-30T06:23:09.015Z,959.04
2017-09-30T06:24:09.008Z,959.07
2017-09-30T06:25:09.031Z,959.04
2017-09-30T06:26:09.056Z,959.07
2017-09-30T06:27:09.077Z,959.09
2017-09-30T06:28:09.101Z,959.06
2017-09-30T06:29:09.125Z,959.13
2017-09-30T06:30:09.148Z,959.1
2017-09-30T06:31:09.173Z,959.08
2017-09-30T06:32:09.196Z,959.08
2017-09-30T06:33:09.224Z,959.12
2017-09-30T06:34:09.243Z,959.12
2017-09-30T06:35:09.269Z,959.13
2017-09-30T06:36:09.290Z,959.15
2017-09-30T06:37:09.330Z,959.13
2017-09-30T06:38:09.388Z,959.11
2017-09-30T06:39:09.361Z,959.12
2017-09-30T06:40:09.390Z,959.16
2017-09-30T06:41:09.422Z,959.09
2017-09-30T06:42:09.432Z,959.11
2017-09-30T06:43:09.458Z,959.12
2017-09-30T06:44:09.482Z,959.14
2017-09-30T06:45:09.510Z,959.08
2017-09-30T06:46:09.530Z,959.08
2017-09-30T06:47:09.551Z,959.08
2017-09-30T06:48:09.574Z,959.04
2017-09-30T06:49:09.626Z,959.01
2017-09-30T06:50:09.621Z,959.06
2017-09-30T06:51:09.644Z,959.04
2017-09-30T06:52:09.672Z,959.07
2017-09-30T06:53:09.742Z,959.03
2017-09-30T06:54:09.717Z,959.06
2017-09-30T06:55:09.741Z,959.09
2017-09-30T06:56:09.768Z,959.08
2017-09-30T06:57:09.789Z,959.1
2017-09-30T06:58:09.814Z,959.07
2017-09-30T06:59:09.836Z,959.11
2017-09-30T07:00:09.860Z,959.09
2017-09-30T07:01:09.883Z,959.1
2017-09-30T07:02:09.909Z,959.08
2017-09-30T07:03:09.930Z,959.14
2017-09-30T07:04:09.959Z,959.1
2017-09-30T07:05:09.980Z,959.11
2017-09-30T07:06:10.004Z,959.13
2017-09-30T07:07:10.027Z,959.08
2017-09-30T07:08:10.051Z,959.09
2017-09-30T07:09:10.077Z,959.05
2017-09-30T07:10:10.119Z,959.04
2017-09-30T07:11:10.124Z,959.08
2017-09-30T07:12:10.154Z,959.06
2017-09-30T07:13:10.172Z,959.07
2017-09-30T07:14:10.195Z,959.07
2017-09-30T07:15:10.220Z,959.08
2017-09-30T07:16:10.250Z,959.08
2017-09-30T07:17:10.269Z,959.08
2017-09-30T07:18:10.294Z,959.03
2017-09-30T07:19:10.317Z,959
2017-09-30T07:20:10.383Z,959.04
2017-09-30T07:21:10.372Z,959.08
2017-09-30T07:22:10.393Z,959.02
2017-09-30T07:23:10.415Z,959.03
2017-09-30T07:24:10.439Z,959.05
2017-09-30T07:25:10.464Z,959.06
2017-09-30T07:26:10.486Z,959.05
2017-09-30T07:27:10.516Z,959.03
2017-09-30T07:28:10.535Z,959.06
2017-09-30T07:29:10.561Z,959.08
2017-09-30T07:30:10.586Z,959.07
2017-09-30T07:31:10.661Z,959.09
2017-09-30T07:32:10.634Z,959.1
2017-09-30T07:33:10.658Z,959.12
2017-09-30T07:34:10.694Z,959.09
2017-09-30T07:35:10.711Z,959.08
2017-09-30T07:36:10.734Z,959.04
2017-09-30T07:37:10.757Z,959.08
2017-09-30T07:38:10.783Z,959.04
2017-09-30T07:39:10.809Z,959.04
2017-09-30T07:40:10.834Z,959.02
2017-09-30T07:41:10.862Z,958.99
2017-09-30T07:42:10.880Z,959.02
2017-09-30T07:43:10.905Z,959.02
2017-09-30T07:44:10.931Z,958.99
2017-09-30T07:45:10.959Z,959.03
2017-09-30T07:46:11.029Z,958.99
2017-09-30T07:47:11.003Z,959.01
2017-09-30T07:48:11.035Z,958.98
2017-09-30T07:49:11.055Z,958.98
2017-09-30T07:50:11.080Z,959
2017-09-30T07:51:11.116Z,958.97
2017-09-30T07:52:11.132Z,958.95
2017-09-30T07:53:11.153Z,958.94
2017-09-30T07:54:11.177Z,958.93
2017-09-30T07:55:11.204Z,958.95
2017-09-30T07:56:11.257Z,958.9
2017-09-30T07:57:11.253Z,958.9
2017-09-30T07:58:11.276Z,958.88
2017-09-30T07:59:11.306Z,958.88
2017-09-30T08:00:11.327Z,958.85
2017-09-30T08:01:11.402Z,958.88
2017-09-30T08:02:11.376Z,958.93
2017-09-30T08:03:11.405Z,958.85
2017-09-30T08:04:11.430Z,958.89
2017-09-30T08:05:11.452Z,958.88
2017-09-30T08:06:11.483Z,958.89
2017-09-30T08:07:11.524Z,958.88
2017-09-30T08:08:11.529Z,958.91
2017-09-30T08:09:11.577Z,958.9
2017-09-30T08:10:11.578Z,958.85
2017-09-30T08:11:11.605Z,958.87
2017-09-30T08:12:11.628Z,958.82
2017-09-30T08:13:11.667Z,958.82
2017-09-30T08:14:11.677Z,958.79
2017-09-30T08:15:11.705Z,958.77
2017-09-30T08:16:11.780Z,958.84
2017-09-30T08:17:11.758Z,958.77
2017-09-30T08:18:11.780Z,958.82
2017-09-30T08:19:11.809Z,958.78
2017-09-30T08:20:11.831Z,958.8
2017-09-30T08:21:11.857Z,958.79
2017-09-30T08:22:11.882Z,958.77
2017-09-30T08:23:11.910Z,958.75
2017-09-30T08:24:11.933Z,958.78
2017-09-30T08:25:11.962Z,958.8
2017-09-30T08:26:11.982Z,958.74
2017-09-30T08:27:12.009Z,958.79
2017-09-30T08:28:12.035Z,958.79
2017-09-30T08:29:12.061Z,958.76
2017-09-30T08:30:12.134Z,958.78
2017-09-30T08:31:12.111Z,958.76
2017-09-30T08:32:12.139Z,958.76
2017-09-30T08:33:12.167Z,958.79
2017-09-30T08:34:12.186Z,958.78
2017-09-30T08:35:12.215Z,958.83
2017-09-30T08:36:12.242Z,958.87
2017-09-30T08:37:12.269Z,958.82
2017-09-30T08:38:12.290Z,958.82
2017-09-30T08:39:12.317Z,958.78
2017-09-30T08:40:12.347Z,958.79
2017-09-30T08:41:12.371Z,958.79
2017-09-30T08:42:12.394Z,958.75
2017-09-30T08:43:12.423Z,958.81
2017-09-30T08:44:12.443Z,958.81
2017-09-30T08:45:12.470Z,958.78
2017-09-30T08:46:12.494Z,958.78
2017-09-30T08:47:12.527Z,958.78
2017-09-30T08:48:12.546Z,958.8
2017-09-30T08:49:12.571Z,958.73
2017-09-30T08:50:12.653Z,958.73
2017-09-30T08:51:12.623Z,958.72
2017-09-30T08:52:12.651Z,958.74
2017-09-30T08:53:12.673Z,958.7
2017-09-30T08:54:12.702Z,958.73
2017-09-30T08:55:12.727Z,958.66
2017-09-30T08:56:12.752Z,958.68
2017-09-30T08:57:12.779Z,958.69
2017-09-30T08:58:12.803Z,958.68
2017-09-30T08:59:12.838Z,958.73
2017-09-30T09:00:12.862Z,958.7
2017-09-30T09:01:12.880Z,958.68
2017-09-30T09:02:12.907Z,958.73
2017-09-30T09:03:12.933Z,958.69
2017-09-30T09:04:12.958Z,958.7
2017-09-30T09:05:12.985Z,958.65
2017-09-30T09:06:13.013Z,958.69
2017-09-30T09:07:13.044Z,958.71
2017-09-30T09:08:13.068Z,958.7
2017-09-30T09:09:13.139Z,958.71
2017-09-30T09:10:13.115Z,958.71
2017-09-30T09:11:13.142Z,958.69
2017-09-30T09:12:13.173Z,958.67
2017-09-30T09:13:13.194Z,958.68
2017-09-30T09:14:13.218Z,958.65
2017-09-30T09:15:13.247Z,958.65
2017-09-30T09:16:13.281Z,958.65
2017-09-30T09:17:13.298Z,958.66
2017-09-30T09:18:13.328Z,958.61
2017-09-30T09:19:13.351Z,958.64
2017-09-30T09:20:13.377Z,958.61
2017-09-30T09:21:13.404Z,958.61
2017-09-30T09:22:13.430Z,958.58
2017-09-30T09:23:13.458Z,958.56
2017-09-30T09:24:13.533Z,958.53
2017-09-30T09:25:13.512Z,958.5
2017-09-30T09:26:13.550Z,958.51
2017-09-30T09:27:13.564Z,958.54
2017-09-30T09:28:13.590Z,958.53
2017-09-30T09:29:13.616Z,958.52
2017-09-30T09:30:13.642Z,958.46
2017-09-30T09:31:13.670Z,958.48
2017-09-30T09:32:13.696Z,958.45
2017-09-30T09:33:13.730Z,958.44
2017-09-30T09:34:13.766Z,958.43
2017-09-30T09:35:13.785Z,958.4
2017-09-30T09:36:13.803Z,958.39
2017-09-30T09:37:13.829Z,958.42
2017-09-30T09:38:13.858Z,958.44
2017-09-30T09:39:13.886Z,958.44
2017-09-30T09:40:13.910Z,958.4
2017-09-30T09:41:13.989Z,958.44
2017-09-30T09:42:13.983Z,958.39
2017-09-30T09:43:13.991Z,958.4
2017-09-30T09:44:14.020Z,958.37
2017-09-30T09:45:14.060Z,958.36
2017-09-30T09:46:14.074Z,958.36
2017-09-30T09:47:14.101Z,958.36
2017-09-30T09:48:14.129Z,958.36
2017-09-30T09:49:14.179Z,958.29
2017-09-30T09:50:14.200Z,958.34
2017-09-30T09:51:14.213Z,958.35
2017-09-30T09:52:14.238Z,958.34
2017-09-30T09:53:14.268Z,958.34
2017-09-30T09:54:14.294Z,958.31
2017-09-30T09:55:14.322Z,958.27
2017-09-30T09:56:14.363Z,958.29
2017-09-30T09:57:14.382Z,958.26
2017-09-30T09:58:14.456Z,958.24
2017-09-30T09:59:14.434Z,958.24
2017-09-30T10:00:14.462Z,958.24
2017-09-30T10:01:14.491Z,958.22
2017-09-30T10:02:14.520Z,958.2
2017-09-30T10:03:14.547Z,958.23
2017-09-30T10:04:14.576Z,958.22
2017-09-30T10:05:14.604Z,958.22
2017-09-30T10:06:14.636Z,958.17
2017-09-30T10:07:14.661Z,958.14
2017-09-30T10:08:14.695Z,958.17
2017-09-30T10:09:14.716Z,958.13
2017-09-30T10:10:14.745Z,958.14
2017-09-30T10:11:14.777Z,958.14
2017-09-30T10:12:14.804Z,958.1
2017-09-30T10:13:14.930Z,958.09
2017-09-30T10:14:14.868Z,958.12
2017-09-30T10:15:14.891Z,958.1
2017-09-30T10:16:14.916Z,958.12
2017-09-30T10:17:14.948Z,958.09
2017-09-30T10:18:14.978Z,958.07
2017-09-30T10:19:15.002Z,958.11
2017-09-30T10:20:15.029Z,958.11
2017-09-30T10:21:15.058Z,958.09
2017-09-30T10:22:15.092Z,958.06
2017-09-30T10:23:15.119Z,958.07
2017-09-30T10:24:15.143Z,958.04
2017-09-30T10:25:15.170Z,958.04
2017-09-30T10:26:15.201Z,958.04
2017-09-30T10:27:15.229Z,958.03
2017-09-30T10:28:15.258Z,958
2017-09-30T10:29:15.286Z,958.04
2017-09-30T10:30:15.363Z,958.01
2017-09-30T10:31:15.342Z,957.98
2017-09-30T10:32:15.378Z,957.97
2017-09-30T10:33:15.397Z,957.94
2017-09-30T10:34:15.425Z,957.99
2017-09-30T10:35:15.457Z,957.91
2017-09-30T10:36:15.483Z,957.95
2017-09-30T10:37:15.511Z,957.94
2017-09-30T10:38:15.538Z,957.93
2017-09-30T10:39:15.567Z,957.94
2017-09-30T10:40:15.631Z,957.93
2017-09-30T10:41:15.623Z,957.9
2017-09-30T10:42:15.653Z,957.93
2017-09-30T10:43:15.680Z,957.92
2017-09-30T10:44:15.708Z,957.93
2017-09-30T10:45:15.745Z,957.9
2017-09-30T10:46:15.764Z,957.91
2017-09-30T10:47:15.791Z,957.92
2017-09-30T10:48:15.821Z,957.89
2017-09-30T10:49:15.898Z,957.88
2017-09-30T10:50:15.882Z,957.92
2017-09-30T10:51:15.907Z,957.9
2017-09-30T10:52:15.932Z,957.9
2017-09-30T10:53:15.961Z,957.89
2017-09-30T10:54:15.989Z,957.87
2017-09-30T10:55:16.018Z,957.9
2017-09-30T10:56:16.046Z,957.87
2017-09-30T10:57:16.075Z,957.84
2017-09-30T10:58:16.103Z,957.8
2017-09-30T10:59:16.132Z,957.82
2017-09-30T11:00:16.158Z,957.8
2017-09-30T11:01:16.187Z,957.84
2017-09-30T11:02:16.215Z,957.84
2017-09-30T11:03:16.244Z,957.82
2017-09-30T11:04:16.321Z,957.8
2017-09-30T11:05:16.302Z,957.77
2017-09-30T11:06:16.328Z,957.76
2017-09-30T11:07:16.355Z,957.76
2017-09-30T11:08:16.387Z,957.74
2017-09-30T11:09:16.413Z,957.71
2017-09-30T11:10:16.441Z,957.7
2017-09-30T11:11:16.469Z,957.69
2017-09-30T11:12:16.498Z,957.65
2017-09-30T11:13:16.533Z,957.69
2017-09-30T11:14:16.556Z,957.66
2017-09-30T11:15:16.585Z,957.68
2017-09-30T11:16:16.613Z,957.7
2017-09-30T11:17:16.641Z,957.69
2017-09-30T11:18:16.669Z,957.65
2017-09-30T11:19:16.697Z,957.68
2017-09-30T11:20:16.728Z,957.6
2017-09-30T11:21:16.757Z,957.68
2017-09-30T11:22:16.936Z,957.65
2017-09-30T11:23:16.813Z,957.67
2017-09-30T11:24:16.842Z,957.66
2017-09-30T11:25:16.872Z,957.65
2017-09-30T11:26:16.900Z,957.68
2017-09-30T11:27:16.929Z,957.64
2017-09-30T11:28:16.959Z,957.66
2017-09-30T11:29:16.992Z,957.7
2017-09-30T11:30:17.019Z,957.65
2017-09-30T11:31:17.046Z,957.66
2017-09-30T11:32:17.079Z,957.67
2017-09-30T11:33:17.107Z,957.65
2017-09-30T11:34:17.136Z,957.64
2017-09-30T11:35:17.193Z,957.63
2017-09-30T11:36:17.193Z,957.63
2017-09-30T11:37:17.228Z,957.6
2017-09-30T11:38:17.254Z,957.67
2017-09-30T11:39:17.358Z,957.56
2017-09-30T11:40:17.314Z,957.55
2017-09-30T11:41:17.344Z,957.52
2017-09-30T11:42:17.377Z,957.52
2017-09-30T11:43:17.406Z,957.5
2017-09-30T11:44:17.441Z,957.51
2017-09-30T11:45:17.466Z,957.49
2017-09-30T11:46:17.547Z,957.5
2017-09-30T11:47:17.530Z,957.5
2017-09-30T11:48:17.559Z,957.48
2017-09-30T11:49:17.594Z,957.45
2017-09-30T11:50:17.823Z,957.45
2017-09-30T11:51:17.700Z,957.43
2017-09-30T11:52:17.683Z,957.44
2017-09-30T11:53:17.713Z,957.42
2017-09-30T11:54:17.744Z,957.38
2017-09-30T11:55:17.774Z,957.38
2017-09-30T11:56:17.807Z,957.4
2017-09-30T11:57:17.842Z,957.37
2017-09-30T11:58:17.869Z,957.36
2017-09-30T11:59:17.902Z,957.34
2017-09-30T12:00:17.930Z,957.28
2017-09-30T12:01:18.011Z,957.27
2017-09-30T12:02:18.054Z,957.25
2017-09-30T12:03:18.025Z,957.21
2017-09-30T12:04:18.055Z,957.21
2017-09-30T12:05:18.086Z,957.2
2017-09-30T12:06:18.116Z,957.21
2017-09-30T12:07:18.147Z,957.19
2017-09-30T12:08:18.187Z,957.19
2017-09-30T12:09:18.213Z,957.15
2017-09-30T12:10:18.241Z,957.15
2017-09-30T12:11:18.272Z,957.08
2017-09-30T12:12:18.303Z,957.08
2017-09-30T12:13:18.336Z,957.11
2017-09-30T12:14:18.365Z,957.09
2017-09-30T12:15:18.395Z,957.04
2017-09-30T12:16:18.427Z,957.04
2017-09-30T12:17:18.457Z,957.06
2017-09-30T12:18:18.488Z,957.04
2017-09-30T12:19:18.517Z,957
2017-09-30T12:20:18.599Z,957.01
2017-09-30T12:21:18.580Z,957.01
2017-09-30T12:22:18.612Z,956.99
2017-09-30T12:23:18.641Z,957.04
2017-09-30T12:24:18.674Z,957.04
2017-09-30T12:25:18.707Z,957.01
2017-09-30T12:26:18.736Z,957.03
2017-09-30T12:27:18.769Z,957.04
2017-09-30T12:28:18.796Z,957.03
2017-09-30T12:29:18.825Z,956.98
2017-09-30T12:30:18.856Z,956.97
2017-09-30T12:31:18.886Z,956.99